createdAt,value
2018-05-26T00:01:56.063Z,99.90
2018-05-26T00:04:23.609Z,99.90
2018-05-26T00:06:51.058Z,99.90
2018-05-26T00:09:19.362Z,99.90
2018-05-26T00:11:47.138Z,99.90
2018-05-26T00:14:14.487Z,99.90
2018-05-26T00:16:42.797Z,99.90
2018-05-26T00:19:10.099Z,99.90
2018-05-26T00:21:37.718Z,99.90
2018-05-26T00:24:05.658Z,99.90
2018-05-26T00:26:32.948Z,99.90
2018-05-26T00:29:00.498Z,99.90
2018-05-26T00:31:28.068Z,99.90
2018-05-26T00:33:55.527Z,99.90
2018-05-26T00:36:24.789Z,99.90
2018-05-26T00:38:52.358Z,99.90
2018-05-26T00:41:21.072Z,99.90
2018-05-26T00:43:48.744Z,99.90
2018-05-26T00:46:16.288Z,99.90
2018-05-26T00:48:43.549Z,99.90
2018-05-26T00:51:11.078Z,99.90
2018-05-26T00:53:38.558Z,99.90
2018-05-26T00:56:05.820Z,99.90
2018-05-26T00:58:33.748Z,99.90
2018-05-26T01:01:01.018Z,99.90
2018-05-26T01:03:28.447Z,99.90
2018-05-26T01:05:55.958Z,99.90
2018-05-26T01:08:23.938Z,99.90
2018-05-26T01:10:51.988Z,99.90
2018-05-26T01:13:19.397Z,99.90
2018-05-26T01:15:46.768Z,99.90
2018-05-26T01:18:14.887Z,99.90
2018-05-26T01:20:44.529Z,99.90
2018-05-26T01:23:12.178Z,99.90
2018-05-26T01:25:39.498Z,99.90
2018-05-26T01:28:07.398Z,99.90
2018-05-26T01:30:34.809Z,99.90
2018-05-26T01:33:03.658Z,99.90
2018-05-26T01:35:32.248Z,99.90
2018-05-26T01:38:02.328Z,99.90
2018-05-26T01:40:29.721Z,99.90
2018-05-26T01:42:57.028Z,99.90
2018-05-26T01:45:27.318Z,99.90
2018-05-26T01:47:55.968Z,99.90
2018-05-26T01:50:23.298Z,99.90
2018-05-26T01:52:52.988Z,99.90
2018-05-26T01:55:20.229Z,99.90
2018-05-26T01:57:49.407Z,99.90
2018-05-26T02:00:18.328Z,99.90
2018-05-26T02:02:46.468Z,99.90
2018-05-26T02:05:15.408Z,99.90
2018-05-26T02:07:43.937Z,99.90
2018-05-26T02:10:12.029Z,99.90
2018-05-26T02:12:40.667Z,99.90
2018-05-26T02:15:08.378Z,99.90
2018-05-26T02:17:35.699Z,99.90
2018-05-26T02:20:03.778Z,99.90
2018-05-26T02:22:31.248Z,99.90
2018-05-26T02:24:58.807Z,99.90
2018-05-26T02:27:26.137Z,99.90
2018-05-26T02:29:54.278Z,99.90
2018-05-26T02:32:21.578Z,99.90
2018-05-26T02:34:50.069Z,99.90
2018-05-26T02:37:17.629Z,99.90
2018-05-26T02:39:45.040Z,99.90
2018-05-26T02:42:12.367Z,99.90
2018-05-26T02:44:39.618Z,99.90
2018-05-26T02:47:07.048Z,99.90
2018-05-26T02:49:34.428Z,99.90
2018-05-26T02:52:02.248Z,99.90
2018-05-26T02:54:29.828Z,99.90
2018-05-26T02:56:57.370Z,99.90
2018-05-26T02:59:24.888Z,99.90
2018-05-26T03:01:52.447Z,99.90
2018-05-26T03:04:25.669Z,99.90
2018-05-26T03:06:59.068Z,99.90
2018-05-26T03:09:32.458Z,99.90
2018-05-26T03:12:06.439Z,99.90
2018-05-26T03:14:40.207Z,99.90
2018-05-26T03:17:07.668Z,99.90
2018-05-26T03:19:35.138Z,99.90
2018-05-26T03:22:02.798Z,99.90
2018-05-26T03:24:30.498Z,99.90
2018-05-26T03:26:58.137Z,99.90
2018-05-26T03:29:25.817Z,99.90
2018-05-26T03:31:53.357Z,99.90
2018-05-26T03:34:20.787Z,99.90
2018-05-26T03:36:48.818Z,99.90
2018-05-26T03:39:17.348Z,99.90
2018-05-26T03:41:44.838Z,99.90
2018-05-26T03:44:12.449Z,99.90
2018-05-26T03:46:39.937Z,99.90
2018-05-26T03:49:07.217Z,99.90
2018-05-26T03:51:34.967Z,99.90
2018-05-26T03:54:02.818Z,99.90
2018-05-26T03:56:48.158Z,99.90
2018-05-26T03:59:22.608Z,99.90
2018-05-26T04:01:50.258Z,99.90
2018-05-26T04:04:17.636Z,99.90
2018-05-26T04:06:45.028Z,99.90
2018-05-26T04:09:12.547Z,99.90
2018-05-26T04:11:39.811Z,99.90
2018-05-26T04:14:08.007Z,99.90
2018-05-26T04:16:35.497Z,99.90
2018-05-26T04:19:03.488Z,99.90
2018-05-26T04:21:30.967Z,99.90
2018-05-26T04:23:58.636Z,99.90
2018-05-26T04:26:27.067Z,99.90
2018-05-26T04:28:56.358Z,99.90
2018-05-26T04:31:25.317Z,99.90
2018-05-26T04:33:53.321Z,99.90
2018-05-26T04:36:22.938Z,99.90
2018-05-26T04:38:51.227Z,99.90
2018-05-26T04:41:21.698Z,99.90
2018-05-26T04:43:49.057Z,99.90
2018-05-26T04:46:17.807Z,99.90
2018-05-26T04:48:45.607Z,99.90
2018-05-26T04:51:12.906Z,99.90
2018-05-26T04:53:40.467Z,99.90
2018-05-26T04:56:08.372Z,99.90
2018-05-26T04:58:35.868Z,99.90
2018-05-26T05:01:04.037Z,99.90
2018-05-26T05:03:34.007Z,99.90
2018-05-26T05:06:01.297Z,99.90
2018-05-26T05:08:29.107Z,99.90
2018-05-26T05:10:56.387Z,99.90
2018-05-26T05:13:25.607Z,99.90
2018-05-26T05:15:54.677Z,99.90
2018-05-26T05:18:22.088Z,99.90
2018-05-26T05:20:49.667Z,99.70
2018-05-26T05:23:17.207Z,98.40
2018-05-26T05:25:44.706Z,97.10
2018-05-26T05:28:12.181Z,96.00
2018-05-26T05:30:39.827Z,94.90
2018-05-26T05:33:07.441Z,91.80
2018-05-26T05:35:36.118Z,92.00
2018-05-26T05:38:03.677Z,92.00
2018-05-26T05:40:31.087Z,91.50
2018-05-26T05:42:58.560Z,91.20
2018-05-26T05:45:25.962Z,90.80
2018-05-26T05:47:53.428Z,89.50
2018-05-26T05:50:20.737Z,87.70
2018-05-26T05:52:48.768Z,87.10
2018-05-26T05:55:16.652Z,88.10
2018-05-26T05:57:44.385Z,89.20
2018-05-26T06:00:11.945Z,89.20
2018-05-26T06:02:39.538Z,91.60
2018-05-26T06:05:07.127Z,92.10
2018-05-26T06:07:34.629Z,92.50
2018-05-26T06:10:02.098Z,93.40
2018-05-26T06:12:29.749Z,92.30
2018-05-26T06:14:57.444Z,93.30
2018-05-26T06:17:24.899Z,93.90
2018-05-26T06:19:52.838Z,92.70
2018-05-26T06:22:20.478Z,93.40
2018-05-26T06:24:48.248Z,93.30
2018-05-26T06:27:19.318Z,93.90
2018-05-26T06:29:48.309Z,93.40
2018-05-26T06:32:15.639Z,93.40
2018-05-26T06:34:43.078Z,93.40
2018-05-26T06:37:10.679Z,93.80
2018-05-26T06:39:38.089Z,92.80
2018-05-26T06:42:07.580Z,92.30
2018-05-26T06:44:35.048Z,92.30
2018-05-26T06:47:03.378Z,91.80
2018-05-26T06:49:31.110Z,91.80
2018-05-26T06:51:58.599Z,91.90
2018-05-26T06:54:27.019Z,91.80
2018-05-26T06:56:54.548Z,91.80
2018-05-26T06:59:22.159Z,91.30
2018-05-26T07:01:49.578Z,91.00
2018-05-26T07:04:17.197Z,91.70
2018-05-26T07:06:44.648Z,92.90
2018-05-26T07:09:12.372Z,92.80
2018-05-26T07:11:39.483Z,92.70
2018-05-26T07:14:07.814Z,93.70
2018-05-26T07:16:36.905Z,92.30
2018-05-26T07:19:04.437Z,92.30
2018-05-26T07:21:32.089Z,93.60
2018-05-26T07:24:00.658Z,93.80
2018-05-26T07:26:28.158Z,93.80
2018-05-26T07:28:57.038Z,94.70
2018-05-26T07:31:25.928Z,94.60
2018-05-26T07:33:53.018Z,93.20
2018-05-26T07:36:20.440Z,93.30
2018-05-26T07:38:47.858Z,91.70
2018-05-26T07:41:15.350Z,92.40
2018-05-26T07:43:49.146Z,90.20
2018-05-26T07:46:17.736Z,90.20
2018-05-26T07:48:45.109Z,89.70
2018-05-26T07:51:13.218Z,91.40
2018-05-26T07:53:40.591Z,91.30
2018-05-26T07:56:07.727Z,90.10
2018-05-26T07:58:35.392Z,86.00
2018-05-26T08:01:02.921Z,84.90
2018-05-26T08:03:30.347Z,84.80
2018-05-26T08:05:58.092Z,85.20
2018-05-26T08:08:25.607Z,85.50
2018-05-26T08:10:53.152Z,85.40
2018-05-26T08:13:21.198Z,86.60
2018-05-26T08:15:49.408Z,89.50
2018-05-26T08:18:17.238Z,89.40
2018-05-26T08:20:46.338Z,88.40
2018-05-26T08:23:13.798Z,88.30
2018-05-26T08:25:42.067Z,85.10
2018-05-26T08:28:10.448Z,86.10
2018-05-26T08:30:38.800Z,86.50
2018-05-26T08:33:06.301Z,86.40
2018-05-26T08:35:35.168Z,86.30
2018-05-26T08:38:02.648Z,86.60
2018-05-26T08:40:30.188Z,85.70
2018-05-26T08:42:58.307Z,83.70
2018-05-26T08:45:25.570Z,83.60
2018-05-26T08:47:53.018Z,85.60
2018-05-26T08:50:20.610Z,84.20
2018-05-26T08:52:47.766Z,86.00
2018-05-26T08:55:15.208Z,85.00
2018-05-26T08:57:42.689Z,88.90
2018-05-26T09:00:11.089Z,83.20
2018-05-26T09:02:38.558Z,83.00
2018-05-26T09:05:06.358Z,84.40
2018-05-26T09:07:33.642Z,82.60
2018-05-26T09:10:01.138Z,83.20
2018-05-26T09:12:28.578Z,80.90
2018-05-26T09:14:56.290Z,82.90
2018-05-26T09:17:25.041Z,78.50
2018-05-26T09:19:52.789Z,78.50
2018-05-26T09:22:22.348Z,81.70
2018-05-26T09:24:50.588Z,82.70
2018-05-26T09:27:18.663Z,79.70
2018-05-26T09:29:47.009Z,78.30
2018-05-26T09:32:15.319Z,80.40
2018-05-26T09:34:42.729Z,80.30
2018-05-26T09:37:10.348Z,82.50
2018-05-26T09:39:37.939Z,77.10
2018-05-26T09:42:05.861Z,79.20
2018-05-26T09:44:33.398Z,80.60
2018-05-26T09:47:01.169Z,81.30
2018-05-26T09:49:28.719Z,83.80
2018-05-26T09:51:56.329Z,74.90
2018-05-26T09:54:23.953Z,76.30
2018-05-26T09:56:51.418Z,77.70
2018-05-26T09:59:19.019Z,75.70
2018-05-26T10:01:46.508Z,79.90
2018-05-26T10:04:13.859Z,75.90
2018-05-26T10:06:41.929Z,75.30
2018-05-26T10:09:10.818Z,71.60
2018-05-26T10:11:38.478Z,71.50
2018-05-26T10:14:06.847Z,72.10
2018-05-26T10:16:34.259Z,71.90
2018-05-26T10:19:02.034Z,70.80
2018-05-26T10:21:29.588Z,64.20
2018-05-26T10:23:57.418Z,66.20
2018-05-26T10:26:24.939Z,67.00
2018-05-26T10:28:52.328Z,63.40
2018-05-26T10:31:19.716Z,65.30
2018-05-26T10:33:47.547Z,67.10
2018-05-26T10:36:15.058Z,67.00
2018-05-26T10:38:42.429Z,62.00
2018-05-26T10:41:10.019Z,63.80
2018-05-26T10:43:38.928Z,67.30
2018-05-26T10:46:25.416Z,66.70
2018-05-26T10:48:52.889Z,64.10
2018-05-26T10:51:20.469Z,64.60
2018-05-26T10:53:49.449Z,60.40
2018-05-26T10:56:16.951Z,65.30
2018-05-26T10:58:44.289Z,63.20
2018-05-26T11:01:12.949Z,62.50
2018-05-26T11:03:40.759Z,62.00
2018-05-26T11:06:08.400Z,61.80
2018-05-26T11:08:35.961Z,61.00
2018-05-26T11:11:03.878Z,61.40
2018-05-26T11:13:31.435Z,62.20
2018-05-26T11:15:58.965Z,63.20
2018-05-26T11:18:27.298Z,59.80
2018-05-26T11:20:54.769Z,59.90
2018-05-26T11:23:22.373Z,58.50
2018-05-26T11:25:49.899Z,60.80
2018-05-26T11:28:17.317Z,57.20
2018-05-26T11:30:44.959Z,58.50
2018-05-26T11:33:12.419Z,59.00
2018-05-26T11:35:39.958Z,58.20
2018-05-26T11:38:08.349Z,55.80
2018-05-26T11:40:36.788Z,55.80
2018-05-26T11:43:04.377Z,55.60
2018-05-26T11:45:32.667Z,54.50
2018-05-26T11:47:59.968Z,54.50
2018-05-26T11:50:27.662Z,53.10
2018-05-26T11:52:56.386Z,51.50
2018-05-26T11:55:23.988Z,51.50
2018-05-26T11:57:51.468Z,52.00
2018-05-26T12:00:19.938Z,51.00
2018-05-26T12:02:47.858Z,50.80
2018-05-26T12:05:15.211Z,49.40
2018-05-26T12:07:42.809Z,51.20
2018-05-26T12:10:11.867Z,51.30
2018-05-26T12:12:39.277Z,51.20
2018-05-26T12:15:07.058Z,50.00
2018-05-26T12:17:35.277Z,48.60
2018-05-26T12:20:02.757Z,48.60
2018-05-26T12:22:30.298Z,48.90
2018-05-26T12:24:58.372Z,49.80
2018-05-26T12:27:25.838Z,46.10
2018-05-26T12:29:53.368Z,46.70
2018-05-26T12:32:21.097Z,46.80
2018-05-26T12:34:50.209Z,46.60
2018-05-26T12:37:17.783Z,46.60
2018-05-26T12:39:46.878Z,45.80
2018-05-26T12:42:15.356Z,44.50
2018-05-26T12:44:42.538Z,44.40
2018-05-26T12:47:09.886Z,45.40
2018-05-26T12:49:37.699Z,45.60
2018-05-26T12:52:05.468Z,45.30
2018-05-26T12:54:34.168Z,44.80
2018-05-26T12:57:01.320Z,44.70
2018-05-26T12:59:28.778Z,46.80
2018-05-26T13:01:55.850Z,46.10
2018-05-26T13:04:23.298Z,45.90
2018-05-26T13:06:50.809Z,45.60
2018-05-26T13:09:18.949Z,42.70
2018-05-26T13:11:47.088Z,42.70
2018-05-26T13:14:15.438Z,45.30
2018-05-26T13:16:43.777Z,45.60
2018-05-26T13:19:11.478Z,45.60
2018-05-26T13:21:39.988Z,48.50
2018-05-26T13:24:08.888Z,47.20
2018-05-26T13:26:36.328Z,46.80
2018-05-26T13:29:03.958Z,47.00
2018-05-26T13:31:31.298Z,47.40
2018-05-26T13:33:59.908Z,48.00
2018-05-26T13:36:28.637Z,47.90
2018-05-26T13:38:56.269Z,48.20
2018-05-26T13:41:23.708Z,46.20
2018-05-26T13:43:51.148Z,46.80
2018-05-26T13:46:18.721Z,46.80
2018-05-26T13:48:47.608Z,46.70
2018-05-26T13:51:15.093Z,46.70
2018-05-26T13:53:42.583Z,46.60
2018-05-26T13:56:10.069Z,45.90
2018-05-26T13:58:38.548Z,46.70
2018-05-26T14:01:05.850Z,47.00
2018-05-26T14:03:34.207Z,43.80
2018-05-26T14:06:02.568Z,46.20
2018-05-26T14:08:30.258Z,46.20
2018-05-26T14:10:58.366Z,46.00
2018-05-26T14:13:26.621Z,45.70
2018-05-26T14:15:55.848Z,45.50
2018-05-26T14:18:23.517Z,44.40
2018-05-26T14:20:51.918Z,42.80
2018-05-26T14:23:20.989Z,44.30
2018-05-26T14:25:48.708Z,45.20
2018-05-26T14:28:17.228Z,45.80
2018-05-26T14:30:45.797Z,46.20
2018-05-26T14:33:13.678Z,45.50
2018-05-26T14:35:42.636Z,45.90
2018-05-26T14:38:10.112Z,46.00
2018-05-26T14:40:38.017Z,45.50
2018-05-26T14:43:06.038Z,44.90
2018-05-26T14:45:34.467Z,45.00
2018-05-26T14:48:02.002Z,44.50
2018-05-26T14:50:30.848Z,44.70
2018-05-26T14:52:58.988Z,45.50
2018-05-26T14:55:27.577Z,44.70
2018-05-26T14:57:56.177Z,43.90
2018-05-26T15:00:24.082Z,43.90
2018-05-26T15:02:52.058Z,44.30
2018-05-26T15:05:20.477Z,44.80
2018-05-26T15:07:49.078Z,44.70
2018-05-26T15:10:16.947Z,44.60
2018-05-26T15:12:44.704Z,44.70
2018-05-26T15:15:12.878Z,44.80
2018-05-26T15:17:40.478Z,45.40
2018-05-26T15:20:07.978Z,44.80
2018-05-26T15:22:36.148Z,44.80
2018-05-26T15:25:04.067Z,44.40
2018-05-26T15:27:31.917Z,43.80
2018-05-26T15:29:59.808Z,42.50
2018-05-26T15:32:27.532Z,43.10
2018-05-26T15:34:55.397Z,44.30
2018-05-26T15:37:22.807Z,45.00
2018-05-26T15:39:51.656Z,44.30
2018-05-26T15:42:19.784Z,44.20
2018-05-26T15:44:47.172Z,44.70
2018-05-26T15:47:15.487Z,43.90
2018-05-26T15:49:42.917Z,44.00
2018-05-26T15:52:10.278Z,44.00
2018-05-26T15:54:37.998Z,45.00
2018-05-26T15:57:05.449Z,45.10
2018-05-26T15:59:33.307Z,46.10
2018-05-26T16:02:14.953Z,46.10
2018-05-26T16:04:43.738Z,46.90
2018-05-26T16:07:11.299Z,46.60
2018-05-26T16:09:38.918Z,46.90
2018-05-26T16:12:06.438Z,47.80
2018-05-26T16:14:35.448Z,48.40
2018-05-26T16:17:04.517Z,49.00
2018-05-26T16:19:32.231Z,49.70
2018-05-26T16:22:01.377Z,48.90
2018-05-26T16:24:29.558Z,48.90
2018-05-26T16:26:57.448Z,48.80
2018-05-26T16:29:25.167Z,48.20
2018-05-26T16:31:52.938Z,50.10
2018-05-26T16:34:21.538Z,48.30
2018-05-26T16:36:51.849Z,49.10
2018-05-26T16:39:19.083Z,48.70
2018-05-26T16:41:47.266Z,48.50
2018-05-26T16:44:14.907Z,49.60
2018-05-26T16:46:42.968Z,49.50
2018-05-26T16:49:10.548Z,49.20
2018-05-26T16:51:38.608Z,49.80
2018-05-26T16:54:06.857Z,49.30
2018-05-26T16:56:34.822Z,49.30
2018-05-26T16:59:02.509Z,48.80
2018-05-26T17:01:30.258Z,48.30
2018-05-26T17:03:57.848Z,49.10
2018-05-26T17:06:25.677Z,48.60
2018-05-26T17:08:53.197Z,48.00
2018-05-26T17:11:21.438Z,48.00
2018-05-26T17:13:48.797Z,47.40
2018-05-26T17:16:16.305Z,46.60
2018-05-26T17:18:43.857Z,46.70
2018-05-26T17:21:11.668Z,47.30
2018-05-26T17:23:39.137Z,47.10
2018-05-26T17:26:06.766Z,48.30
2018-05-26T17:28:34.228Z,48.10
2018-05-26T17:31:01.678Z,48.30
2018-05-26T17:33:29.299Z,48.20
2018-05-26T17:35:56.708Z,48.90
2018-05-26T17:38:24.846Z,49.20
2018-05-26T17:40:52.357Z,49.20
2018-05-26T17:43:19.884Z,49.00
2018-05-26T17:45:47.177Z,49.70
2018-05-26T17:48:14.738Z,50.70
2018-05-26T17:50:42.318Z,51.60
2018-05-26T17:53:09.959Z,51.90
2018-05-26T17:55:37.698Z,52.70
2018-05-26T17:58:05.262Z,53.80
2018-05-26T18:00:33.608Z,55.10
2018-05-26T18:03:00.987Z,55.00
2018-05-26T18:05:28.538Z,55.70
2018-05-26T18:07:56.068Z,55.80
2018-05-26T18:11:50.278Z,56.20
2018-05-26T18:14:18.408Z,57.30
2018-05-26T18:16:45.530Z,57.20
2018-05-26T18:19:13.289Z,56.90
2018-05-26T18:21:41.607Z,57.30
2018-05-26T18:24:08.978Z,57.20
2018-05-26T18:26:36.608Z,58.10
2018-05-26T18:29:04.439Z,57.90
2018-05-26T18:31:31.860Z,58.50
2018-05-26T18:34:00.469Z,59.20
2018-05-26T18:36:28.657Z,59.70
2018-05-26T18:38:56.148Z,59.70
2018-05-26T18:41:24.889Z,60.00
2018-05-26T18:43:53.169Z,61.00
2018-05-26T18:46:20.571Z,60.90
2018-05-26T18:48:49.398Z,61.60
2018-05-26T18:51:17.059Z,61.60
2018-05-26T18:53:44.778Z,62.00
2018-05-26T18:56:12.128Z,62.70
2018-05-26T18:58:39.728Z,62.50
2018-05-26T19:01:07.168Z,63.10
2018-05-26T19:03:35.318Z,63.70
2018-05-26T19:06:02.849Z,63.70
2018-05-26T19:08:32.148Z,64.10
2018-05-26T19:11:00.347Z,64.70
2018-05-26T19:13:27.666Z,64.60
2018-05-26T19:15:56.147Z,65.20
2018-05-26T19:18:24.810Z,65.20
2018-05-26T19:20:52.278Z,65.50
2018-05-26T19:23:19.788Z,66.20
2018-05-26T19:25:47.237Z,67.00
2018-05-26T19:28:14.728Z,68.40
2018-05-26T19:30:43.167Z,69.50
2018-05-26T19:33:10.678Z,69.50
2018-05-26T19:35:38.217Z,69.90
2018-05-26T19:38:05.559Z,70.20
2018-05-26T19:40:32.978Z,71.40
2018-05-26T19:43:00.337Z,72.10
2018-05-26T19:45:29.108Z,73.00
2018-05-26T19:47:56.547Z,73.00
2018-05-26T19:50:23.948Z,73.00
2018-05-26T19:52:51.597Z,73.70
2018-05-26T19:55:18.978Z,74.60
2018-05-26T19:57:46.373Z,75.60
2018-05-26T20:00:13.958Z,76.40
2018-05-26T20:02:41.728Z,76.40
2018-05-26T20:05:09.928Z,77.50
2018-05-26T20:07:39.627Z,77.60
2018-05-26T20:10:07.112Z,77.70
2018-05-26T20:12:37.478Z,78.00
2018-05-26T20:15:05.888Z,77.80
2018-05-26T20:17:33.237Z,77.80
2018-05-26T20:20:00.799Z,78.00
2018-05-26T20:22:29.488Z,77.50
2018-05-26T20:24:57.017Z,77.50
2018-05-26T20:27:24.381Z,77.40
2018-05-26T20:29:52.578Z,77.30
2018-05-26T20:32:21.920Z,77.30
2018-05-26T20:34:50.539Z,77.40
2018-05-26T20:37:19.218Z,77.60
2018-05-26T20:39:47.528Z,77.70
2018-05-26T20:42:17.208Z,77.90
2018-05-26T20:44:47.478Z,77.90
2018-05-26T20:47:14.808Z,79.10
2018-05-26T20:49:43.368Z,79.80
2018-05-26T20:52:11.538Z,81.00
2018-05-26T20:54:39.708Z,81.60
2018-05-26T20:57:07.358Z,81.60
2018-05-26T20:59:34.657Z,81.60
2018-05-26T21:02:02.639Z,81.60
2018-05-26T21:04:29.948Z,81.90
2018-05-26T21:06:58.563Z,84.90
2018-05-26T21:09:25.968Z,84.90
2018-05-26T21:11:53.333Z,85.80
2018-05-26T21:14:21.438Z,90.60
2018-05-26T21:16:49.760Z,90.60
2018-05-26T21:19:17.147Z,91.10
2018-05-26T21:21:45.638Z,92.30
2018-05-26T21:24:13.147Z,92.30
2018-05-26T21:26:41.558Z,93.80
2018-05-26T21:29:08.927Z,93.80
2018-05-26T21:31:36.927Z,94.70
2018-05-26T21:34:04.558Z,94.70
2018-05-26T21:36:33.763Z,94.70
2018-05-26T21:39:02.327Z,94.90
2018-05-26T21:41:30.557Z,96.00
2018-05-26T21:43:57.878Z,96.00
2018-05-26T21:46:26.759Z,96.00
2018-05-26T21:48:54.297Z,96.00
2018-05-26T21:51:22.427Z,96.30
2018-05-26T21:53:49.789Z,96.30
2018-05-26T21:56:17.238Z,96.60
2018-05-26T21:58:44.528Z,96.60
2018-05-26T22:01:12.337Z,97.80
2018-05-26T22:03:40.188Z,97.80
2018-05-26T22:06:07.553Z,97.60
2018-05-26T22:08:37.450Z,97.60
2018-05-26T22:11:05.647Z,97.60
2018-05-26T22:13:33.207Z,97.60
2018-05-26T22:16:00.728Z,97.70
2018-05-26T22:18:28.717Z,97.90
2018-05-26T22:20:56.157Z,98.20
2018-05-26T22:23:24.517Z,98.30
2018-05-26T22:25:51.859Z,98.20
2018-05-26T22:28:19.257Z,98.20
2018-05-26T22:30:47.589Z,98.40
2018-05-26T22:33:15.418Z,98.60
2018-05-26T22:35:42.878Z,98.60
2018-05-26T22:38:10.324Z,98.70
2018-05-26T22:40:37.997Z,98.90
2018-05-26T22:43:05.837Z,98.90
2018-05-26T22:45:32.957Z,98.90
2018-05-26T22:48:00.413Z,98.90
2018-05-26T22:50:29.288Z,98.80
2018-05-26T22:52:56.671Z,98.80
2018-05-26T22:55:24.148Z,98.80
2018-05-26T22:57:51.678Z,98.80
2018-05-26T23:00:24.918Z,98.90
2018-05-26T23:02:52.478Z,98.90
2018-05-26T23:05:19.988Z,99.10
2018-05-26T23:07:47.762Z,99.20
2018-05-26T23:10:17.088Z,99.30
2018-05-26T23:12:44.448Z,99.40
2018-05-26T23:15:11.977Z,99.60
2018-05-26T23:17:39.779Z,99.90
2018-05-26T23:20:08.007Z,99.90
2018-05-26T23:22:36.057Z,99.80
2018-05-26T23:25:03.618Z,99.80
2018-05-26T23:27:31.028Z,99.90
2018-05-26T23:29:58.467Z,99.90
2018-05-26T23:32:25.986Z,99.90
2018-05-26T23:34:53.247Z,99.80
2018-05-26T23:37:20.798Z,99.80
2018-05-26T23:39:48.367Z,99.90
2018-05-26T23:42:16.987Z,99.90
2018-05-26T23:44:45.427Z,99.90
2018-05-26T23:47:12.739Z,99.90
2018-05-26T23:49:40.598Z,99.90
2018-05-26T23:52:09.136Z,99.90
2018-05-26T23:54:37.627Z,99.90
2018-05-26T23:57:05.188Z,99.90
2018-05-26T23:59:34.897Z,99.90
